Terminal Aerodrome Forecast
Issued by NWS

Home | Current Version | Previous Version | Text Only | Print | Product List | Glossary On
Versions: 1 2 3 4 5 6 7 8 9 10 11 12 13 14 15 16 17 18 19 20 21 22 23 24 25
000
FTUS42 KGSP 181740
TAFGMU
TAF
KGMU 181740Z 1818/1918 06006KT P6SM SCT060
     FM181930 10005KT P6SM -SHRA VCTS BKN040CB
     FM190000 11003KT P6SM VCTS BKN040CB
     FM190300 11004KT P6SM OVC020
     FM190700 11004KT 3SM -SHRA BR OVC008
     FM191400 12010G17KT 2SM SHRA BR VCTS OVC003CB=

USA.gov is the U.S. government's official web portal to all federal, state and local government web resources and services.